Time;durP1;ratioP1;P1;durP2;ratioP2;P2;SDS_P1;SDS_P2;PMS_P1;PMS_P2;Temp;Humidity;BMP_temperature;BMP_pressure;BME280_temperature;BME280_humidity;BME280_pressure;Samples;Min_cycle;Max_cycle;Signal;HPM_P1;HPM_P2
2023/12/24 00:01:23;;;;;;;8.00;3.20;;;;;;;0.08;70.62;97033.38;106836;1266;71807;-38
2023/12/24 00:03:51;;;;;;;9.10;3.80;;;;;;;0.05;70.59;97037.79;106724;1268;66606;-38
2023/12/24 00:06:18;;;;;;;7.30;3.60;;;;;;;0.04;70.72;97040.42;106845;1268;72471;-38
2023/12/24 00:08:47;;;;;;;6.30;3.50;;;;;;;0.10;70.83;97045.80;106830;1269;60891;-39
2023/12/24 00:11:15;;;;;;;7.70;3.60;;;;;;;0.13;70.48;97051.05;106865;1263;59530;-38
2023/12/24 00:13:42;;;;;;;6.30;3.50;;;;;;;0.10;70.67;97053.11;106719;1263;73058;-38
2023/12/24 00:16:10;;;;;;;7.60;3.70;;;;;;;0.08;70.70;97058.70;106751;1264;66403;-38
2023/12/24 00:18:38;;;;;;;5.80;3.20;;;;;;;0.06;70.57;97062.28;106838;1269;72456;-38
2023/12/24 00:21:05;;;;;;;5.00;3.10;;;;;;;0.03;70.88;97064.73;106804;1270;59634;-38
2023/12/24 00:23:33;;;;;;;6.90;3.20;;;;;;;0.06;70.81;97069.77;106781;1265;59506;-38
2023/12/24 00:26:01;;;;;;;7.10;3.00;;;;;;;0.12;70.87;97069.52;106733;1269;73092;-39
2023/12/24 00:28:28;;;;;;;8.30;3.30;;;;;;;0.14;71.01;97075.75;106827;1269;68371;-39
2023/12/24 00:30:56;;;;;;;7.40;3.80;;;;;;;0.14;70.79;97081.38;106822;1269;72704;-38
2023/12/24 00:33:23;;;;;;;7.50;3.30;;;;;;;0.11;70.73;97082.23;106861;1263;59640;-38
2023/12/24 00:35:51;;;;;;;7.10;3.50;;;;;;;0.09;70.84;97086.60;106818;1269;60044;-39
2023/12/24 00:38:18;;;;;;;7.40;3.40;;;;;;;0.07;71.15;97087.44;106855;1264;72903;-38
2023/12/24 00:40:46;;;;;;;6.50;3.10;;;;;;;0.10;70.92;97093.54;106822;1269;68136;-38
2023/12/24 00:43:13;;;;;;;7.80;3.20;;;;;;;0.16;70.92;97091.01;106806;1267;70441;-39
2023/12/24 00:45:41;;;;;;;10.30;3.50;;;;;;;0.19;70.58;97092.30;107299;1260;59241;-38
2023/12/24 00:48:09;;;;;;;6.70;3.20;;;;;;;0.20;70.63;97095.36;107095;1257;60011;-39
2023/12/24 00:50:37;;;;;;;5.30;3.10;;;;;;;0.19;70.76;97097.80;107286;1259;73044;-39
2023/12/24 00:53:05;;;;;;;7.40;3.60;;;;;;;0.19;70.97;97092.54;107441;1259;66091;-39
2023/12/24 00:55:32;;;;;;;7.00;3.50;;;;;;;0.18;70.84;97095.00;107083;1257;71800;-39
2023/12/24 00:58:00;;;;;;;5.80;3.20;;;;;;;0.19;70.64;97095.57;106651;1259;1003038;-39
2023/12/24 01:00:28;;;;;;;5.30;3.10;;;;;;;0.24;70.63;97097.88;107340;1258;59573;-39
2023/12/24 01:02:55;;;;;;;8.70;3.70;;;;;;;0.23;70.66;97101.91;107242;1257;71796;-39
2023/12/24 01:05:23;;;;;;;6.90;3.60;;;;;;;0.21;70.76;97102.77;107268;1263;66408;-39
2023/12/24 01:07:50;;;;;;;8.80;3.60;;;;;;;0.19;70.75;97103.33;107300;1258;72762;-39
2023/12/24 01:10:18;;;;;;;6.70;3.40;;;;;;;0.17;70.75;97101.77;107049;1260;60523;-39
2023/12/24 01:12:45;;;;;;;7.90;3.30;;;;;;;0.16;70.59;97098.14;107313;1257;59689;-39
2023/12/24 01:15:13;;;;;;;10.00;3.60;;;;;;;0.17;70.51;97095.45;107440;1257;73917;-39
2023/12/24 01:17:40;;;;;;;7.10;3.50;;;;;;;0.23;70.57;97099.47;107305;1258;66427;-39
2023/12/24 01:20:15;;;;;;;6.70;3.40;;;;;;;0.23;70.40;97102.52;107337;1257;72712;-39
2023/12/24 01:22:43;;;;;;;6.30;3.30;;;;;;;0.21;70.26;97102.46;107267;1258;60463;-39
2023/12/24 01:25:11;;;;;;;8.90;3.80;;;;;;;0.18;70.34;97101.63;107409;1259;60132;-40
2023/12/24 01:27:39;;;;;;;9.00;3.60;;;;;;;0.16;70.33;97108.05;107250;1257;73903;-39
2023/12/24 01:30:08;;;;;;;5.50;3.60;;;;;;;0.15;70.41;97113.36;107292;1261;67976;-40
2023/12/24 01:32:35;;;;;;;7.60;3.40;;;;;;;0.14;70.38;97108.16;107298;1254;71267;-40
2023/12/24 01:35:03;;;;;;;8.20;3.80;;;;;;;0.19;70.31;97112.62;107285;1260;60334;-40
2023/12/24 01:37:32;;;;;;;6.60;3.80;;;;;;;0.23;70.14;97114.17;107380;1260;60415;-40
2023/12/24 01:39:59;;;;;;;7.00;3.80;;;;;;;0.21;70.17;97116.56;107321;1254;72767;-40
2023/12/24 01:42:27;;;;;;;7.10;3.20;;;;;;;0.17;70.08;97120.80;107292;1260;66297;-40
2023/12/24 01:44:54;;;;;;;6.60;3.50;;;;;;;0.14;69.99;97120.11;107228;1257;73088;-40
2023/12/24 01:47:22;;;;;;;8.50;3.80;;;;;;;0.11;70.14;97126.82;107233;1262;60460;-40
2023/12/24 01:49:49;;;;;;;10.70;3.70;;;;;;;0.09;70.12;97131.73;107089;1258;60517;-40
2023/12/24 01:52:17;;;;;;;8.90;3.60;;;;;;;0.04;70.21;97130.39;107243;1257;73961;-40
2023/12/24 01:54:46;;;;;;;6.00;3.10;;;;;;;0.15;70.01;97142.60;107263;1257;67571;-40
2023/12/24 01:57:14;;;;;;;8.80;3.80;;;;;;;0.20;70.21;97147.04;107142;1258;72702;-39
2023/12/24 01:59:42;;;;;;;8.50;3.70;;;;;;;0.18;69.86;97144.80;107265;1260;60464;-40
2023/12/24 02:02:09;;;;;;;7.40;3.60;;;;;;;0.17;69.84;97146.06;107315;1258;60421;-40
2023/12/24 02:04:37;;;;;;;9.60;3.40;;;;;;;0.15;69.71;97148.14;107211;1257;73887;-39
2023/12/24 02:07:04;;;;;;;6.30;3.30;;;;;;;0.10;69.67;97154.04;107228;1259;67635;-39
2023/12/24 02:09:32;;;;;;;5.80;3.30;;;;;;;0.11;69.89;97148.29;107195;1260;72662;-40
2023/12/24 02:11:59;;;;;;;8.50;3.50;;;;;;;0.15;69.59;97152.79;107260;1257;60508;-40
2023/12/24 02:14:27;;;;;;;8.40;3.40;;;;;;;0.12;69.99;97154.77;107212;1262;61193;-40
2023/12/24 02:16:56;;;;;;;7.40;3.50;;;;;;;0.09;69.89;97162.10;107088;1255;72632;-40
2023/12/24 02:19:24;;;;;;;9.30;3.30;;;;;;;0.06;70.17;97161.55;107295;1257;67575;-40
2023/12/24 02:21:52;;;;;;;8.50;3.30;;;;;;;0.04;70.16;97162.88;107073;1260;72647;-39
2023/12/24 02:24:19;;;;;;;9.00;3.60;;;;;;;0.03;70.37;97163.46;107072;1258;60925;-39
2023/12/24 02:27:22;;;;;;;7.50;3.20;;;;;;;0.07;70.26;97172.10;107225;1255;60425;-39
2023/12/24 02:29:50;;;;;;;9.10;3.40;;;;;;;0.08;70.44;97172.55;106988;1255;73802;-40
2023/12/24 02:32:18;;;;;;;6.10;2.80;;;;;;;0.05;70.35;97173.56;107309;1256;66808;-40
2023/12/24 02:34:48;;;;;;;9.30;3.70;;;;;;;0.02;70.50;97180.04;107235;1256;72706;-40
2023/12/24 02:37:15;;;;;;;8.80;3.70;;;;;;;-0.09;70.68;97164.48;107246;1258;60444;-39
2023/12/24 02:39:43;;;;;;;8.80;3.30;;;;;;;-0.02;70.46;97176.59;107229;1260;60333;-40
2023/12/24 02:42:11;;;;;;;9.50;3.30;;;;;;;0.07;70.47;97178.85;107226;1255;72646;-39
2023/12/24 02:44:39;;;;;;;7.50;3.50;;;;;;;0.10;70.21;97177.55;107105;1256;67562;-39
2023/12/24 02:47:07;;;;;;;8.80;3.70;;;;;;;0.06;70.08;97178.90;107201;1258;72633;-39
2023/12/24 02:49:34;;;;;;;6.50;3.60;;;;;;;0.01;70.27;97179.92;107224;1257;60505;-40
2023/12/24 02:52:02;;;;;;;9.60;4.00;;;;;;;-0.10;70.09;97181.94;107215;1257;60406;-40
2023/12/24 02:54:30;;;;;;;8.30;3.30;;;;;;;-0.08;70.19;97189.90;107261;1256;72611;-38
2023/12/24 02:56:57;;;;;;;9.20;3.40;;;;;;;-0.08;70.62;97199.86;107212;1257;67543;-38
2023/12/24 02:59:26;;;;;;;8.70;3.30;;;;;;;-0.05;70.48;97201.40;107226;1257;71398;-38
2023/12/24 03:01:54;;;;;;;8.50;3.20;;;;;;;-0.06;70.56;97202.88;107065;1260;60552;-38
2023/12/24 03:04:21;;;;;;;8.40;3.40;;;;;;;-0.12;70.43;97204.50;107322;1257;61285;-38
2023/12/24 03:06:49;;;;;;;6.30;3.00;;;;;;;-0.16;70.63;97209.88;107233;1257;72663;-37
2023/12/24 03:09:16;;;;;;;10.60;3.50;;;;;;;-0.20;70.55;97216.91;107273;1257;66512;-38
2023/12/24 03:11:44;;;;;;;9.90;3.40;;;;;;;-0.21;70.71;97218.56;107202;1258;72470;-38
2023/12/24 03:14:12;;;;;;;7.10;3.40;;;;;;;-0.15;70.66;97224.80;107267;1257;60177;-38
2023/12/24 03:16:39;;;;;;;7.50;3.30;;;;;;;-0.13;70.46;97220.11;107226;1257;59329;-39
2023/12/24 03:19:07;;;;;;;7.50;3.50;;;;;;;-0.18;70.38;97221.61;106500;1257;1003312;-39
2023/12/24 03:21:35;;;;;;;8.10;3.50;;;;;;;-0.22;70.83;97229.40;107213;1257;66370;-39
2023/12/24 03:24:03;;;;;;;11.00;3.60;;;;;;;-0.28;70.89;97227.96;107222;1258;72503;-38
2023/12/24 03:26:30;;;;;;;7.00;2.70;;;;;;;-0.28;70.99;97232.98;107275;1257;60939;-39
2023/12/24 03:29:00;;;;;;;10.20;3.50;;;;;;;-0.24;71.11;97235.73;107233;1255;60335;-38
2023/12/24 03:31:28;;;;;;;7.80;3.80;;;;;;;-0.24;71.19;97242.37;107196;1255;73943;-39
2023/12/24 03:33:55;;;;;;;6.60;3.50;;;;;;;-0.26;71.27;97246.11;107197;1258;66914;-38
2023/12/24 03:36:23;;;;;;;8.00;3.30;;;;;;;-0.29;71.08;97249.15;106468;1261;1003114;-39
2023/12/24 03:38:50;;;;;;;8.30;3.50;;;;;;;-0.31;71.51;97252.52;107192;1256;61020;-39
2023/12/24 03:41:18;;;;;;;6.10;2.90;;;;;;;-0.28;71.51;97251.02;107270;1257;60642;-38
2023/12/24 03:43:45;;;;;;;8.60;3.30;;;;;;;-0.23;71.34;97253.03;107232;1257;73833;-39
2023/12/24 03:46:17;;;;;;;7.20;3.10;;;;;;;-0.24;71.25;97251.34;107084;1258;67639;-38
2023/12/24 03:48:45;;;;;;;7.80;3.90;;;;;;;-0.26;71.30;97256.83;107229;1257;71468;-39
2023/12/24 03:51:14;;;;;;;6.60;3.40;;;;;;;-0.29;71.46;97258.13;107073;1256;60549;-38
2023/12/24 03:53:43;;;;;;;9.10;3.50;;;;;;;-0.31;71.18;97262.55;107238;1260;60361;-38
2023/12/24 03:56:11;;;;;;;5.50;2.60;;;;;;;-0.27;70.98;97267.15;107317;1257;72826;-38
2023/12/24 03:58:39;;;;;;;8.50;3.50;;;;;;;-0.24;70.94;97269.52;107220;1261;67556;-39
2023/12/24 04:01:10;;;;;;;8.00;3.50;;;;;;;-0.24;70.89;97273.70;107311;1257;72658;-39
2023/12/24 04:03:40;;;;;;;8.90;3.30;;;;;;;-0.26;70.75;97276.55;107220;1257;60338;-39
2023/12/24 04:06:13;;;;;;;9.80;3.80;;;;;;;-0.28;70.75;97279.00;107358;1257;60373;-38
2023/12/24 04:08:42;;;;;;;9.30;3.20;;;;;;;-0.28;70.83;97289.94;106513;1255;1005084;-39
2023/12/24 04:11:14;;;;;;;6.90;3.40;;;;;;;-0.30;70.93;97279.34;107262;1257;66347;-38
2023/12/24 04:13:42;;;;;;;8.10;3.50;;;;;;;-0.17;70.76;97293.46;107152;1262;70967;-39
2023/12/24 04:16:10;;;;;;;7.40;3.50;;;;;;;-0.16;70.81;97296.37;107235;1256;60462;-38
2023/12/24 04:18:37;;;;;;;6.60;3.30;;;;;;;-0.19;70.61;97300.85;107297;1256;60406;-39
2023/12/24 04:21:05;;;;;;;6.40;3.10;;;;;;;-0.22;70.69;97294.38;107261;1257;73336;-38
2023/12/24 04:23:33;;;;;;;8.00;3.40;;;;;;;-0.22;70.87;97304.71;107223;1260;66621;-38
2023/12/24 04:26:01;;;;;;;9.20;3.60;;;;;;;-0.18;70.90;97304.91;107296;1257;71389;-39
2023/12/24 04:28:29;;;;;;;10.30;4.10;;;;;;;-0.12;70.65;97302.25;107245;1257;60518;-39
2023/12/24 04:30:56;;;;;;;9.60;4.00;;;;;;;-0.20;70.76;97300.54;107220;1256;60494;-38
2023/12/24 04:33:24;;;;;;;6.00;3.30;;;;;;;-0.13;70.95;97312.35;107275;1258;72614;-39
2023/12/24 04:35:52;;;;;;;7.60;3.90;;;;;;;-0.15;70.99;97312.02;107206;1257;67931;-40
2023/12/24 04:38:20;;;;;;;6.30;3.40;;;;;;;-0.16;71.17;97313.82;107244;1257;71776;-40
2023/12/24 04:40:47;;;;;;;10.20;4.00;;;;;;;-0.17;71.13;97305.40;107063;1260;60447;-40
2023/12/24 04:43:15;;;;;;;7.90;3.80;;;;;;;-0.11;71.11;97305.40;107066;1257;60332;-40
2023/12/24 04:45:43;;;;;;;8.90;3.70;;;;;;;-0.10;70.85;97298.44;107206;1257;73799;-40
2023/12/24 04:48:10;;;;;;;12.30;4.50;;;;;;;-0.11;71.21;97301.30;107216;1257;66491;-40
2023/12/24 04:50:38;;;;;;;8.60;3.90;;;;;;;-0.13;71.07;97298.73;107313;1257;71396;-40
2023/12/24 04:53:06;;;;;;;8.30;4.10;;;;;;;-0.16;71.19;97306.88;107112;1260;60456;-39
2023/12/24 04:55:35;;;;;;;9.70;3.50;;;;;;;-0.16;71.38;97304.27;107232;1257;60121;-40
2023/12/24 04:58:03;;;;;;;7.60;4.00;;;;;;;-0.12;71.14;97304.77;107211;1257;73777;-39
2023/12/24 05:00:30;;;;;;;7.80;3.80;;;;;;;-0.10;71.13;97306.96;107379;1257;67549;-40
2023/12/24 05:02:58;;;;;;;10.10;3.90;;;;;;;-0.11;71.37;97314.46;107265;1261;71431;-40
2023/12/24 05:05:26;;;;;;;11.80;4.30;;;;;;;-0.13;71.19;97315.30;107205;1257;60526;-39
2023/12/24 05:07:54;;;;;;;11.10;4.90;;;;;;;-0.16;71.66;97322.02;107239;1256;60328;-40
2023/12/24 05:10:22;;;;;;;9.70;3.70;;;;;;;-0.13;71.66;97325.52;107321;1255;74024;-40
2023/12/24 05:12:49;;;;;;;7.20;3.90;;;;;;;-0.07;71.65;97330.55;107254;1258;66612;-39
2023/12/24 05:15:18;;;;;;;10.30;3.60;;;;;;;-0.06;71.86;97334.92;107198;1255;71383;-40
2023/12/24 05:17:45;;;;;;;7.70;3.90;;;;;;;-0.09;71.80;97336.28;107229;1257;60360;-40
2023/12/24 05:20:14;;;;;;;8.90;4.80;;;;;;;-0.11;72.00;97340.40;107259;1256;60375;-40
2023/12/24 05:22:42;;;;;;;12.00;4.10;;;;;;;-0.13;72.34;97343.17;107238;1256;73843;-39
2023/12/24 05:25:09;;;;;;;10.50;4.50;;;;;;;-0.10;72.28;97344.92;107229;1256;67535;-40
2023/12/24 05:27:38;;;;;;;9.00;4.20;;;;;;;-0.05;72.28;97353.27;107273;1257;72661;-39
2023/12/24 05:30:07;;;;;;;7.80;4.00;;;;;;;-0.06;72.31;97356.68;107285;1259;60265;-40
2023/12/24 05:32:34;;;;;;;8.00;4.00;;;;;;;-0.08;72.31;97359.45;107356;1257;60039;-39
2023/12/24 05:35:02;;;;;;;9.70;4.80;;;;;;;-0.09;72.53;97361.45;107263;1257;72850;-40
2023/12/24 05:37:29;;;;;;;8.80;3.90;;;;;;;-0.10;72.54;97358.92;107242;1257;67918;-40
2023/12/24 05:39:57;;;;;;;10.60;4.40;;;;;;;-0.07;72.74;97368.90;107265;1258;72677;-39
2023/12/24 05:42:24;;;;;;;7.90;4.70;;;;;;;-0.02;72.55;97369.67;107249;1257;60267;-40
2023/12/24 05:44:52;;;;;;;12.00;4.70;;;;;;;-0.01;72.65;97367.46;107246;1257;59672;-39
2023/12/24 05:47:19;;;;;;;16.20;5.10;;;;;;;-0.04;72.92;97375.30;107272;1256;73872;-40
2023/12/24 05:49:47;;;;;;;10.50;4.70;;;;;;;-0.09;73.04;97379.36;107249;1260;67543;-40
2023/12/24 05:52:15;;;;;;;10.40;4.30;;;;;;;-0.11;73.18;97381.28;107229;1256;72667;-39
2023/12/24 05:54:42;;;;;;;11.70;4.50;;;;;;;-0.07;73.38;97385.50;107405;1256;60945;-40
2023/12/24 05:57:10;;;;;;;11.10;4.60;;;;;;;-0.04;73.29;97387.77;107309;1257;60495;-40
2023/12/24 05:59:37;;;;;;;11.30;5.50;;;;;;;-0.06;73.57;97388.11;107235;1257;73757;-40
2023/12/24 06:02:05;;;;;;;8.90;5.10;;;;;;;-0.09;73.43;97392.73;107235;1258;67555;-39
2023/12/24 06:04:33;;;;;;;11.30;4.70;;;;;;;-0.11;73.72;97389.34;107200;1258;72717;-40
2023/12/24 06:07:01;;;;;;;11.20;4.90;;;;;;;-0.09;73.67;97391.06;107503;1254;60422;-40
2023/12/24 06:09:29;;;;;;;10.20;4.70;;;;;;;-0.02;73.59;97393.33;107506;1253;60459;-39
2023/12/24 06:11:56;;;;;;;10.10;5.00;;;;;;;-0.02;73.63;97393.98;107684;1254;72618;-39
2023/12/24 06:14:24;;;;;;;12.30;5.60;;;;;;;-0.05;73.91;97387.83;107561;1254;67058;-39
2023/12/24 06:16:52;;;;;;;8.30;4.70;;;;;;;-0.08;74.05;97393.30;107534;1254;72477;-40
2023/12/24 06:19:19;;;;;;;11.60;4.80;;;;;;;-0.11;74.07;97396.73;107515;1253;60576;-39
2023/12/24 06:21:47;;;;;;;8.40;4.70;;;;;;;-0.07;73.74;97397.82;107548;1254;60353;-40
2023/12/24 06:24:19;;;;;;;9.30;4.40;;;;;;;-0.03;73.73;97407.63;107720;1252;72985;-40
2023/12/24 06:26:47;;;;;;;8.50;4.40;;;;;;;-0.04;73.77;97414.66;107517;1254;66419;-40
2023/12/24 06:29:15;;;;;;;11.20;5.00;;;;;;;-0.07;73.96;97418.29;107520;1254;72759;-40
2023/12/24 06:31:43;;;;;;;9.90;4.50;;;;;;;-0.11;74.16;97423.81;107484;1257;60447;-40
2023/12/24 06:34:11;;;;;;;9.10;4.20;;;;;;;-0.09;74.21;97429.64;107703;1253;60549;-40
2023/12/24 06:36:39;;;;;;;11.10;4.30;;;;;;;-0.03;73.71;97435.23;107552;1253;73978;-39
2023/12/24 06:39:06;;;;;;;10.20;4.40;;;;;;;-0.01;73.56;97430.13;107687;1254;66489;-39
2023/12/24 06:41:34;;;;;;;8.10;4.30;;;;;;;-0.04;73.72;97433.45;107535;1257;72777;-39
2023/12/24 06:44:02;;;;;;;9.70;4.10;;;;;;;-0.07;73.97;97432.77;106744;1254;1003059;-41
2023/12/24 06:46:29;;;;;;;7.30;4.20;;;;;;;-0.17;74.07;97425.61;107546;1252;60360;-40
2023/12/24 06:48:57;;;;;;;8.20;4.10;;;;;;;-0.05;73.89;97434.92;107507;1254;72576;-40
2023/12/24 06:51:25;;;;;;;8.50;4.00;;;;;;;-0.04;74.21;97438.63;107514;1254;67908;-40
2023/12/24 06:53:52;;;;;;;7.90;4.70;;;;;;;-0.08;74.20;97438.29;107547;1254;71101;-39
2023/12/24 06:56:20;;;;;;;9.90;4.20;;;;;;;-0.13;74.86;97441.71;107512;1251;59265;-40
2023/12/24 06:58:47;;;;;;;10.00;4.20;;;;;;;-0.14;75.54;97447.78;107570;1254;60418;-40
2023/12/24 07:01:15;;;;;;;9.20;3.90;;;;;;;-0.10;76.35;97452.73;107694;1254;73837;-40
2023/12/24 07:03:43;;;;;;;13.80;4.20;;;;;;;-0.15;77.20;97454.60;107557;1253;67598;-40
2023/12/24 07:06:10;;;;;;;10.40;4.80;;;;;;;-0.22;77.91;97456.05;107465;1257;72450;-40
2023/12/24 07:08:38;;;;;;;9.40;4.30;;;;;;;-0.28;78.55;97457.76;107471;1254;60930;-39
2023/12/24 07:11:06;;;;;;;10.40;4.00;;;;;;;-0.28;78.93;97456.30;107568;1253;60440;-40
2023/12/24 07:13:33;;;;;;;11.30;4.60;;;;;;;-0.29;79.45;97459.26;107462;1254;73846;-39
2023/12/24 07:16:01;;;;;;;8.00;4.30;;;;;;;-0.35;80.01;97461.83;107531;1254;67895;-39
2023/12/24 07:18:29;;;;;;;8.10;4.10;;;;;;;-0.39;80.38;97462.08;107476;1254;71447;-40
2023/12/24 07:20:56;;;;;;;9.00;4.40;;;;;;;-0.37;80.51;97466.30;107517;1257;60539;-40
2023/12/24 07:23:24;;;;;;;12.30;5.00;;;;;;;-0.31;80.43;97471.66;107531;1254;60424;-39
2023/12/24 07:25:51;;;;;;;8.40;4.10;;;;;;;-0.33;80.33;97471.09;107645;1253;73314;-39
2023/12/24 07:28:19;;;;;;;9.00;4.10;;;;;;;-0.38;80.41;97475.95;107499;1254;66324;-39
2023/12/24 07:30:46;;;;;;;11.10;4.60;;;;;;;-0.39;80.20;97481.85;107477;1254;71464;-40
2023/12/24 07:33:14;;;;;;;8.80;3.80;;;;;;;-0.37;80.17;97487.67;107476;1253;60864;-40
2023/12/24 07:35:42;;;;;;;6.30;3.60;;;;;;;-0.33;79.68;97481.81;106746;1253;1003703;-40
2023/12/24 07:38:09;;;;;;;9.80;4.20;;;;;;;-0.33;79.64;97484.45;107662;1254;73817;-40
2023/12/24 07:40:37;;;;;;;7.70;3.60;;;;;;;-0.33;79.50;97484.67;107494;1253;66834;-39
2023/12/24 07:43:04;;;;;;;7.20;3.70;;;;;;;-0.37;78.98;97489.98;107653;1256;72638;-39
2023/12/24 07:45:32;;;;;;;6.80;3.40;;;;;;;-0.35;78.59;97490.80;107479;1253;61023;-40
2023/12/24 07:48:00;;;;;;;6.00;3.30;;;;;;;-0.31;78.02;97491.00;107508;1254;59725;-40
2023/12/24 07:50:27;;;;;;;8.20;3.70;;;;;;;-0.29;77.60;97488.98;107521;1253;72974;-39
2023/12/24 07:52:55;;;;;;;8.30;3.90;;;;;;;-0.31;77.21;97489.31;107506;1254;66314;-40
2023/12/24 07:55:22;;;;;;;7.20;3.60;;;;;;;-0.33;76.96;97494.80;107522;1258;71500;-40
2023/12/24 07:57:50;;;;;;;6.60;3.50;;;;;;;-0.29;76.72;97500.19;107498;1254;60833;-40
2023/12/24 08:00:18;;;;;;;7.40;3.40;;;;;;;-0.22;76.52;97500.73;107579;1256;60504;-40
2023/12/24 08:02:45;;;;;;;8.10;4.10;;;;;;;-0.19;75.95;97502.86;107656;1254;73870;-39
2023/12/24 08:05:13;;;;;;;8.10;3.50;;;;;;;-0.18;75.83;97508.48;106857;1254;1002889;-39
2023/12/24 08:07:41;;;;;;;8.30;3.70;;;;;;;-0.18;75.77;97510.63;107569;1254;72673;-39
2023/12/24 08:10:09;;;;;;;8.30;3.30;;;;;;;-0.19;75.57;97519.27;107560;1254;61090;-39
2023/12/24 08:12:36;;;;;;;6.40;3.40;;;;;;;-0.15;75.57;97518.89;107606;1253;60438;-39
2023/12/24 08:15:05;;;;;;;7.60;4.10;;;;;;;-0.14;75.76;97524.38;107581;1253;73849;-39
2023/12/24 08:17:33;;;;;;;7.10;3.40;;;;;;;-0.17;76.62;97526.88;107682;1253;66111;-39
2023/12/24 08:20:00;;;;;;;7.70;3.60;;;;;;;-0.20;76.95;97528.08;107577;1253;72351;-38
2023/12/24 08:22:28;;;;;;;7.30;3.20;;;;;;;-0.21;77.10;97531.53;107560;1253;60831;-39
2023/12/24 08:24:56;;;;;;;6.10;3.10;;;;;;;-0.19;77.51;97532.52;107615;1254;60523;-38
2023/12/24 08:27:23;;;;;;;7.10;3.70;;;;;;;-0.22;77.46;97540.66;107589;1254;73768;-39
2023/12/24 08:29:51;;;;;;;6.80;3.40;;;;;;;-0.26;77.56;97542.95;107584;1253;67611;-38
2023/12/24 08:32:18;;;;;;;7.20;3.20;;;;;;;-0.30;77.91;97550.13;107674;1252;72672;-38
2023/12/24 08:34:46;;;;;;;7.20;3.30;;;;;;;-0.26;77.68;97547.14;107573;1254;60872;-38
2023/12/24 08:37:13;;;;;;;6.50;3.00;;;;;;;-0.21;77.60;97547.30;107575;1254;59911;-39
2023/12/24 08:39:41;;;;;;;5.60;3.10;;;;;;;-0.21;77.54;97548.29;107566;1252;73822;-39
2023/12/24 08:42:08;;;;;;;5.20;2.80;;;;;;;-0.24;77.32;97549.64;107600;1253;65311;-39
2023/12/24 08:44:36;;;;;;;7.60;3.30;;;;;;;-0.27;77.23;97553.88;107573;1253;72649;-39
2023/12/24 08:47:04;;;;;;;7.50;3.20;;;;;;;-0.24;77.23;97551.17;107612;1254;60522;-39
2023/12/24 08:49:31;;;;;;;5.50;3.20;;;;;;;-0.19;76.03;97551.08;107643;1254;60540;-39
2023/12/24 08:51:59;;;;;;;7.20;3.30;;;;;;;-0.23;75.52;97547.94;106179;1252;1016671;-39
2023/12/24 08:54:26;;;;;;;6.10;3.30;;;;;;;-0.14;75.33;97556.04;107727;1253;66919;-39
2023/12/24 08:56:54;;;;;;;6.20;3.20;;;;;;;-0.03;75.18;97558.38;107579;1254;72733;-39
2023/12/24 08:59:21;;;;;;;8.50;3.40;;;;;;;0.15;74.68;97561.80;107663;1252;60538;-39
2023/12/24 09:01:49;;;;;;;8.10;3.40;;;;;;;0.35;74.28;97559.27;107595;1256;60453;-39
2023/12/24 09:04:17;;;;;;;6.50;2.90;;;;;;;0.50;73.43;97565.64;107571;1253;73819;-39
2023/12/24 09:06:44;;;;;;;8.70;3.00;;;;;;;0.55;71.87;97561.91;107576;1253;66564;-39
2023/12/24 09:09:12;;;;;;;7.60;3.00;;;;;;;0.54;70.87;97561.88;107560;1254;72649;-39
2023/12/24 09:11:40;;;;;;;7.50;2.80;;;;;;;0.48;71.14;97561.94;107575;1256;60517;-39
2023/12/24 09:14:08;;;;;;;5.80;3.10;;;;;;;0.45;70.67;97564.61;107503;1254;145147;-39
2023/12/24 09:19:53;;;;;;;7.90;3.30;;;;;;;0.29;69.92;97555.98;104441;1286;612485;-39
2023/12/24 09:22:20;;;;;;;6.30;3.40;;;;;;;0.16;69.62;97553.31;106656;1265;59274;-39
2023/12/24 09:24:46;;;;;;;6.80;2.70;;;;;;;0.08;69.54;97558.84;106712;1267;59364;-39
2023/12/24 09:27:13;;;;;;;4.50;2.50;;;;;;;0.04;69.98;97560.73;106705;1266;72803;-39
2023/12/24 09:29:40;;;;;;;5.30;2.50;;;;;;;0.12;69.70;97558.36;106715;1264;68272;-39
2023/12/24 09:32:07;;;;;;;6.40;3.10;;;;;;;0.14;69.04;97563.22;106609;1264;94640;-40
2023/12/24 09:34:34;;;;;;;5.40;2.90;;;;;;;0.11;68.58;97560.02;106858;1264;59551;-40
2023/12/24 09:37:01;;;;;;;5.70;3.00;;;;;;;0.09;68.57;97559.27;107439;1258;60009;-39
2023/12/24 09:39:28;;;;;;;5.80;2.90;;;;;;;0.06;68.56;97559.55;107422;1256;72834;-39
2023/12/24 09:41:55;;;;;;;5.80;3.10;;;;;;;0.04;68.19;97562.70;107315;1257;67791;-39
2023/12/24 09:44:23;;;;;;;5.70;2.60;;;;;;;0.07;67.99;97568.71;107535;1255;72622;-39
2023/12/24 09:46:49;;;;;;;4.70;2.70;;;;;;;0.16;67.98;97571.80;107448;1256;60230;-39
2023/12/24 09:49:16;;;;;;;4.80;2.70;;;;;;;0.22;67.49;97565.30;107404;1257;60524;-39
2023/12/24 09:51:43;;;;;;;6.60;2.80;;;;;;;0.27;67.44;97570.33;107519;1256;72830;-39
2023/12/24 09:54:10;;;;;;;4.50;2.90;;;;;;;0.34;66.89;97570.14;107453;1255;68006;-39
2023/12/24 09:56:36;;;;;;;10.40;3.80;;;;;;;0.39;66.32;97563.84;107401;1256;73224;-39
2023/12/24 09:59:03;;;;;;;6.50;3.20;;;;;;;0.45;66.09;97567.04;107492;1257;59575;-39
2023/12/24 10:01:44;;;;;;;5.90;3.00;;;;;;;0.50;65.84;97570.84;107435;1258;62572;-38
2023/12/24 10:04:12;;;;;;;6.40;3.50;;;;;;;0.52;65.28;97567.91;107499;1257;71538;-39
2023/12/24 10:06:58;;;;;;;7.80;3.00;;;;;;;0.47;65.25;97555.08;107455;1256;66684;-39
2023/12/24 10:09:49;;;;;;;4.30;2.50;;;;;;;0.65;64.89;97569.08;107431;1256;73149;-39
2023/12/24 10:12:16;;;;;;;5.60;2.80;;;;;;;0.76;64.47;97569.07;107452;1256;59731;-39
2023/12/24 10:14:55;;;;;;;5.50;2.80;;;;;;;0.79;64.58;97575.34;107443;1256;60809;-39
2023/12/24 10:17:32;;;;;;;6.30;3.10;;;;;;;0.81;64.37;97573.26;107485;1256;73057;-39
2023/12/24 10:20:02;;;;;;;6.00;3.20;;;;;;;0.81;64.43;97575.25;107457;1257;67723;-39
2023/12/24 10:22:29;;;;;;;6.60;3.30;;;;;;;0.84;64.49;97571.81;107472;1257;72753;-39
2023/12/24 10:25:03;;;;;;;5.50;3.00;;;;;;;0.87;64.59;97579.37;107391;1257;59504;-39
2023/12/24 10:27:30;;;;;;;6.20;3.30;;;;;;;0.89;64.36;97578.66;107485;1257;59598;-39
2023/12/24 10:30:14;;;;;;;7.00;3.30;;;;;;;0.90;64.47;97580.73;107451;1256;73649;-39
2023/12/24 10:32:42;;;;;;;5.40;3.00;;;;;;;0.87;64.05;97588.81;107471;1259;66731;-39
2023/12/24 10:35:09;;;;;;;5.00;2.90;;;;;;;0.82;63.99;97592.27;107430;1257;72930;-39
2023/12/24 10:37:37;;;;;;;5.50;2.90;;;;;;;0.84;64.41;97593.31;107280;1256;60861;-39
2023/12/24 10:40:10;;;;;;;9.10;3.50;;;;;;;0.85;64.24;97594.48;107437;1256;60241;-39
2023/12/24 10:42:38;;;;;;;5.10;3.00;;;;;;;0.80;64.23;97599.15;107434;1255;71918;-39
2023/12/24 10:45:08;;;;;;;5.40;2.90;;;;;;;0.75;64.49;97600.45;107513;1257;67889;-39
2023/12/24 10:47:35;;;;;;;;;;;;;;;0.71;64.71;97610.69;107449;1256;73077;-39
2023/12/24 10:50:05;;;;;;;5.20;3.30;;;;;;;0.67;65.19;97607.35;107471;1258;59554;-39
2023/12/24 10:52:33;;;;;;;5.70;3.20;;;;;;;0.61;65.25;97616.33;107470;1259;60226;-39
2023/12/24 10:55:00;;;;;;;6.40;3.10;;;;;;;0.56;65.49;97623.80;106787;1256;1003777;-39
2023/12/24 10:57:46;;;;;;;4.60;2.70;;;;;;;0.54;65.83;97625.11;107504;1257;68401;-39
2023/12/24 11:00:14;;;;;;;5.70;2.70;;;;;;;0.61;65.89;97624.87;107431;1259;73089;-39
2023/12/24 11:02:45;;;;;;;6.10;3.10;;;;;;;0.65;65.71;97623.70;107435;1256;59725;-40
2023/12/24 11:05:12;;;;;;;4.00;2.80;;;;;;;0.66;65.68;97621.98;107494;1255;60391;-40
2023/12/24 11:07:48;;;;;;;8.10;3.00;;;;;;;0.66;65.46;97627.31;107502;1256;73907;-40
2023/12/24 11:10:43;;;;;;;5.80;3.10;;;;;;;0.66;65.60;97630.64;107505;1256;67701;-40
2023/12/24 11:13:11;;;;;;;5.80;2.90;;;;;;;0.66;65.91;97641.02;107489;1256;73083;-40
2023/12/24 11:15:41;;;;;;;4.00;2.80;;;;;;;0.67;65.75;97643.64;107468;1257;59609;-40
2023/12/24 11:18:09;;;;;;;4.10;3.00;;;;;;;0.65;65.14;97645.56;107454;1259;59690;-40
2023/12/24 11:20:42;;;;;;;4.90;3.10;;;;;;;0.68;65.54;97651.45;107353;1257;72754;-39
2023/12/24 11:23:09;;;;;;;6.60;3.20;;;;;;;0.74;65.26;97653.17;107383;1255;68224;-40
2023/12/24 11:25:40;;;;;;;6.10;3.10;;;;;;;0.73;65.20;97657.06;107369;1256;73417;-40
2023/12/24 11:28:23;;;;;;;5.90;3.00;;;;;;;0.68;65.32;97660.13;107375;1257;59756;-40
2023/12/24 11:30:50;;;;;;;5.50;3.10;;;;;;;0.63;65.41;97659.30;107388;1255;60310;-39
2023/12/24 11:33:34;;;;;;;7.80;3.20;;;;;;;0.59;65.60;97663.13;107362;1256;73469;-40
2023/12/24 11:36:04;;;;;;;5.60;3.30;;;;;;;0.57;65.99;97664.91;107379;1255;67839;-39